createdAt,value
2023-08-22T00:03:49.159Z,3.10
2023-08-22T00:06:18.298Z,3.30
2023-08-22T00:08:47.112Z,3.60
2023-08-22T00:11:16.180Z,4.10
2023-08-22T00:13:44.597Z,3.60
2023-08-22T00:16:12.989Z,3.60
2023-08-22T00:18:41.692Z,3.30
2023-08-22T00:21:11.026Z,3.60
2023-08-22T00:23:39.392Z,3.30
2023-08-22T00:26:07.944Z,4.10
2023-08-22T00:28:36.325Z,3.50
2023-08-22T00:31:04.618Z,3.60
2023-08-22T00:33:33.099Z,3.80
2023-08-22T00:36:01.372Z,3.60
2023-08-22T00:38:29.810Z,3.70
2023-08-22T00:40:58.534Z,3.20
2023-08-22T00:43:27.259Z,3.40
2023-08-22T00:45:55.609Z,4.00
2023-08-22T00:48:24.616Z,3.70
2023-08-22T00:50:53.572Z,3.60
2023-08-22T00:53:22.050Z,3.80
2023-08-22T00:55:50.803Z,3.30
2023-08-22T00:58:19.773Z,3.90
2023-08-22T01:00:48.249Z,3.10
2023-08-22T01:03:20.217Z,3.60
2023-08-22T01:05:56.361Z,3.20
2023-08-22T01:08:32.749Z,3.80
2023-08-22T01:11:20.634Z,3.20
2023-08-22T01:13:53.887Z,3.80
2023-08-22T01:16:22.826Z,3.50
2023-08-22T01:19:08.787Z,3.50
2023-08-22T01:21:38.190Z,3.50
2023-08-22T01:24:06.936Z,3.70
2023-08-22T01:26:35.357Z,3.20
2023-08-22T01:29:12.407Z,3.10
2023-08-22T01:32:17.350Z,3.80
2023-08-22T01:34:47.408Z,3.50
2023-08-22T01:37:16.773Z,3.60
2023-08-22T01:39:46.805Z,3.60
2023-08-22T01:42:15.382Z,3.60
2023-08-22T01:44:43.849Z,3.40
2023-08-22T01:47:12.520Z,3.40
2023-08-22T01:49:40.803Z,3.70
2023-08-22T01:52:09.292Z,3.80
2023-08-22T01:54:39.506Z,3.60
2023-08-22T01:57:07.794Z,3.40
2023-08-22T01:59:36.717Z,3.90
2023-08-22T02:02:05.078Z,2.90
2023-08-22T02:04:33.683Z,3.90
2023-08-22T02:07:01.997Z,3.80
2023-08-22T02:09:30.243Z,3.70
2023-08-22T02:11:58.897Z,3.60
2023-08-22T02:14:27.353Z,3.30
2023-08-22T02:16:55.767Z,3.50
2023-08-22T02:19:24.237Z,3.50
2023-08-22T02:21:53.020Z,3.50
2023-08-22T02:24:22.748Z,2.90
2023-08-22T02:26:51.175Z,3.70
2023-08-22T02:29:19.601Z,3.20
2023-08-22T02:31:48.056Z,3.60
2023-08-22T02:34:16.691Z,3.70
2023-08-22T02:36:44.987Z,3.70
2023-08-22T02:39:13.711Z,4.00
2023-08-22T02:41:41.990Z,3.60
2023-08-22T02:44:10.282Z,3.30
2023-08-22T02:46:39.229Z,3.70
2023-08-22T02:49:07.696Z,3.60
2023-08-22T02:51:36.024Z,3.80
2023-08-22T02:54:04.489Z,3.60
2023-08-22T02:56:32.942Z,3.80
2023-08-22T02:59:01.318Z,3.20
2023-08-22T03:01:30.339Z,4.50
2023-08-22T03:04:00.980Z,3.60
2023-08-22T03:06:29.273Z,3.10
2023-08-22T03:08:57.712Z,3.40
2023-08-22T03:11:26.644Z,3.40
2023-08-22T03:13:54.990Z,3.00
2023-08-22T03:16:23.554Z,3.50
2023-08-22T03:18:51.998Z,3.50
2023-08-22T03:21:20.425Z,3.50
2023-08-22T03:23:48.952Z,4.10
2023-08-22T03:26:17.381Z,4.30
2023-08-22T03:28:46.004Z,4.00
2023-08-22T03:31:15.722Z,3.80
2023-08-22T03:33:44.417Z,3.70
2023-08-22T03:36:12.989Z,3.60
2023-08-22T03:38:42.521Z,3.30
2023-08-22T03:41:11.173Z,3.20
2023-08-22T03:43:39.446Z,3.50
2023-08-22T03:46:07.907Z,3.60
2023-08-22T03:48:36.646Z,3.80
2023-08-22T03:51:08.853Z,3.40
2023-08-22T03:53:38.434Z,3.50
2023-08-22T03:56:06.845Z,3.60
2023-08-22T03:58:35.467Z,3.70
2023-08-22T04:01:04.790Z,3.00
2023-08-22T04:03:33.746Z,3.30
2023-08-22T04:06:02.424Z,3.50
2023-08-22T04:08:31.273Z,3.40
2023-08-22T04:11:00.312Z,3.80
2023-08-22T04:13:29.028Z,3.70
2023-08-22T04:15:57.410Z,3.20
2023-08-22T04:18:25.710Z,3.50
2023-08-22T04:20:54.169Z,3.40
2023-08-22T04:23:22.495Z,3.20
2023-08-22T04:25:50.751Z,4.20
2023-08-22T04:28:20.211Z,3.30
2023-08-22T04:30:49.191Z,3.40
2023-08-22T04:33:17.703Z,3.30
2023-08-22T04:35:45.970Z,4.00
2023-08-22T04:38:14.251Z,3.50
2023-08-22T04:40:44.423Z,3.20
2023-08-22T04:43:12.725Z,4.20
2023-08-22T04:45:41.538Z,3.60
2023-08-22T04:48:10.448Z,2.90
2023-08-22T04:50:40.334Z,4.10
2023-08-22T04:53:08.763Z,3.40
2023-08-22T04:55:37.172Z,4.10
2023-08-22T04:58:05.533Z,3.10
2023-08-22T05:00:34.237Z,3.80
2023-08-22T05:03:03.040Z,3.60
2023-08-22T05:05:32.642Z,4.20
2023-08-22T05:08:01.905Z,3.00
2023-08-22T05:10:30.434Z,3.10
2023-08-22T05:12:59.425Z,3.30
2023-08-22T05:15:28.253Z,3.20
2023-08-22T05:17:57.034Z,3.90
2023-08-22T05:20:25.421Z,3.20
2023-08-22T05:22:53.862Z,3.30
2023-08-22T05:25:22.961Z,2.90
2023-08-22T05:27:51.681Z,3.30
2023-08-22T05:30:20.475Z,3.30
2023-08-22T05:32:49.375Z,3.10
2023-08-22T05:35:18.118Z,3.50
2023-08-22T05:37:46.523Z,3.60
2023-08-22T05:40:15.737Z,2.90
2023-08-22T05:42:44.840Z,3.30
2023-08-22T05:45:14.739Z,3.60
2023-08-22T05:47:43.915Z,3.70
2023-08-22T05:50:12.887Z,3.60
2023-08-22T05:52:41.229Z,3.70
2023-08-22T05:55:09.906Z,3.70
2023-08-22T05:57:38.658Z,3.80
2023-08-22T06:00:08.069Z,3.70
2023-08-22T06:02:37.445Z,3.90
2023-08-22T06:05:06.289Z,6.90
2023-08-22T06:07:34.718Z,6.00
2023-08-22T06:10:03.390Z,4.50
2023-08-22T06:12:31.811Z,3.70
2023-08-22T06:15:00.121Z,3.90
2023-08-22T06:17:29.563Z,4.00
2023-08-22T06:19:57.877Z,4.40
2023-08-22T06:22:26.977Z,3.60
2023-08-22T06:24:55.658Z,3.30
2023-08-22T06:27:23.974Z,3.50
2023-08-22T06:29:52.280Z,3.60
2023-08-22T06:32:21.034Z,3.80
2023-08-22T06:34:50.070Z,3.60
2023-08-22T06:37:18.777Z,3.50
2023-08-22T06:39:47.960Z,3.10
2023-08-22T06:42:16.106Z,4.00
2023-08-22T06:44:44.617Z,4.40
2023-08-22T06:47:13.324Z,3.40
2023-08-22T06:49:42.150Z,3.70
2023-08-22T06:52:10.784Z,3.90
2023-08-22T06:54:39.649Z,3.90
2023-08-22T06:57:08.712Z,4.10
2023-08-22T06:59:37.010Z,3.30
2023-08-22T07:02:05.635Z,3.60
2023-08-22T07:04:34.258Z,3.70
2023-08-22T07:07:03.269Z,3.80
2023-08-22T07:09:31.694Z,3.30
2023-08-22T07:11:59.895Z,3.60
2023-08-22T07:14:29.242Z,4.00
2023-08-22T07:16:57.728Z,3.10
2023-08-22T07:19:40.494Z,3.90
2023-08-22T07:22:10.327Z,3.20
2023-08-22T07:24:38.734Z,3.40
2023-08-22T07:27:08.705Z,3.30
2023-08-22T07:29:37.256Z,3.70
2023-08-22T07:32:05.820Z,3.40
2023-08-22T07:34:34.490Z,3.00
2023-08-22T07:37:03.205Z,3.00
2023-08-22T07:39:31.465Z,3.50
2023-08-22T07:41:59.746Z,3.10
2023-08-22T07:44:28.693Z,3.70
2023-08-22T07:46:57.163Z,3.30
2023-08-22T07:49:26.541Z,3.60
2023-08-22T07:51:54.905Z,3.20
2023-08-22T07:54:23.281Z,3.20
2023-08-22T07:56:58.935Z,3.80
2023-08-22T07:59:33.477Z,4.40
2023-08-22T08:02:03.204Z,4.40
2023-08-22T08:04:32.369Z,3.60
2023-08-22T08:07:01.465Z,3.50
2023-08-22T08:09:35.368Z,4.30
2023-08-22T08:12:05.452Z,3.50
2023-08-22T08:14:34.190Z,3.00
2023-08-22T08:17:03.745Z,3.40
2023-08-22T08:19:32.597Z,3.70
2023-08-22T08:22:04.710Z,3.60
2023-08-22T08:24:33.956Z,3.40
2023-08-22T08:27:02.441Z,3.80
2023-08-22T08:29:30.750Z,3.30
2023-08-22T08:31:59.813Z,3.10
2023-08-22T08:34:28.350Z,3.80
2023-08-22T08:36:57.880Z,3.50
2023-08-22T08:39:26.674Z,3.10
2023-08-22T08:42:12.400Z,3.40
2023-08-22T08:44:46.343Z,3.80
2023-08-22T08:47:15.764Z,3.70
2023-08-22T08:49:45.125Z,3.50
2023-08-22T08:52:13.704Z,3.30
2023-08-22T08:54:43.224Z,3.20
2023-08-22T08:57:11.879Z,3.20
2023-08-22T08:59:42.603Z,3.40
2023-08-22T09:02:17.019Z,3.20
2023-08-22T09:04:53.128Z,3.50
2023-08-22T09:07:21.940Z,2.90
2023-08-22T09:09:50.488Z,3.30
2023-08-22T09:12:19.015Z,3.40
2023-08-22T09:14:49.634Z,3.30
2023-08-22T09:17:19.348Z,3.30
2023-08-22T09:19:48.233Z,3.40
2023-08-22T09:22:17.306Z,3.10
2023-08-22T09:24:54.139Z,3.10
2023-08-22T09:27:23.730Z,3.10
2023-08-22T09:29:52.252Z,3.80
2023-08-22T09:32:22.468Z,3.40
2023-08-22T09:34:56.329Z,3.30
2023-08-22T09:37:36.486Z,3.30
2023-08-22T09:40:10.600Z,3.30
2023-08-22T09:42:41.018Z,3.10
2023-08-22T09:45:10.870Z,3.20
2023-08-22T09:47:44.285Z,2.90
2023-08-22T09:50:17.875Z,3.80
2023-08-22T09:52:48.255Z,3.60
2023-08-22T09:55:17.736Z,3.20
2023-08-22T09:57:46.442Z,3.00
2023-08-22T10:00:16.351Z,3.00
2023-08-22T10:02:45.884Z,3.00
2023-08-22T10:05:16.097Z,3.40
2023-08-22T10:07:45.256Z,3.00
2023-08-22T10:10:15.385Z,4.20
2023-08-22T10:12:44.748Z,3.20
2023-08-22T10:15:17.016Z,3.60
2023-08-22T10:17:47.031Z,3.60
2023-08-22T10:20:15.805Z,3.70
2023-08-22T10:22:44.403Z,3.40
2023-08-22T10:25:12.743Z,3.10
2023-08-22T10:27:48.697Z,3.20
2023-08-22T10:30:21.100Z,3.10
2023-08-22T10:36:07.690Z,3.20
2023-08-22T10:36:26.314Z,3.30
2023-08-22T10:38:55.287Z,3.10
2023-08-22T10:41:46.780Z,3.30
2023-08-22T10:44:21.253Z,2.80
2023-08-22T10:47:02.672Z,3.00
2023-08-22T10:49:36.108Z,2.80
2023-08-22T10:52:13.816Z,3.50
2023-08-22T10:55:05.872Z,3.80
2023-08-22T10:57:37.298Z,3.40
2023-08-22T11:00:09.127Z,3.30
2023-08-22T11:02:38.880Z,3.00
2023-08-22T11:05:13.135Z,3.00
2023-08-22T11:07:50.149Z,3.30
2023-08-22T11:10:23.834Z,2.90
2023-08-22T11:12:56.721Z,3.60
2023-08-22T11:15:25.377Z,4.10
2023-08-22T11:17:53.861Z,3.70
2023-08-22T15:40:02.439Z,2.50
2023-08-22T15:42:30.696Z,3.10
2023-08-22T15:45:00.045Z,3.50
2023-08-22T15:48:09.763Z,3.50
2023-08-22T15:54:19.635Z,3.30
2023-08-22T15:56:58.042Z,3.30
2023-08-22T16:06:59.046Z,3.40
2023-08-22T16:09:33.358Z,3.40
2023-08-22T16:12:01.702Z,3.70
2023-08-22T16:14:30.344Z,3.60
2023-08-22T16:16:59.978Z,4.00
2023-08-22T16:19:53.356Z,3.30
2023-08-22T16:22:33.033Z,3.60
2023-08-22T16:25:03.539Z,3.70
2023-08-22T18:59:15.812Z,6.00
2023-08-22T19:02:14.161Z,4.90
2023-08-22T19:15:23.008Z,6.20
2023-08-22T19:18:11.978Z,5.40
2023-08-22T19:24:37.223Z,5.80
2023-08-22T19:27:17.363Z,6.20
2023-08-22T19:29:56.937Z,5.10
2023-08-22T19:33:02.304Z,6.00
2023-08-22T19:35:45.587Z,5.80
2023-08-22T19:38:26.071Z,5.40
2023-08-22T19:41:01.876Z,6.00
2023-08-22T19:43:42.712Z,5.40
2023-08-22T19:46:11.738Z,6.20
2023-08-22T19:48:40.607Z,5.60
2023-08-22T19:51:09.511Z,5.70
2023-08-22T19:53:38.081Z,5.40
2023-08-22T19:56:06.674Z,5.70
2023-08-22T19:58:38.912Z,5.80
2023-08-22T20:01:31.154Z,5.70
2023-08-22T20:11:46.112Z,5.60
2023-08-22T20:14:14.366Z,6.10
2023-08-22T20:16:45.500Z,6.20
2023-08-22T20:19:44.023Z,6.30
2023-08-22T20:22:12.616Z,5.80
2023-08-22T20:24:40.800Z,6.10
2023-08-22T20:27:09.137Z,5.90
2023-08-22T20:30:15.123Z,5.90
2023-08-22T20:36:01.850Z,5.90
2023-08-22T20:38:33.772Z,5.90
2023-08-22T20:41:02.022Z,5.70
2023-08-22T20:43:30.310Z,5.90
2023-08-22T20:46:02.008Z,6.20
2023-08-22T20:48:31.839Z,6.40
2023-08-22T20:51:00.509Z,6.20
2023-08-22T20:53:29.197Z,6.10
2023-08-22T20:55:57.462Z,5.90
2023-08-22T20:58:26.133Z,5.90
2023-08-22T21:00:54.403Z,6.20
2023-08-22T21:03:22.710Z,6.40
2023-08-22T21:05:51.610Z,6.20
2023-08-22T21:08:19.916Z,6.50
2023-08-22T21:10:48.123Z,6.50
2023-08-22T21:13:16.316Z,6.80
2023-08-22T21:15:44.897Z,6.10
2023-08-22T21:18:13.393Z,6.40
2023-08-22T21:20:41.908Z,6.20
2023-08-22T21:23:10.667Z,5.70
2023-08-22T21:25:39.476Z,6.20
2023-08-22T21:28:07.745Z,5.70
2023-08-22T21:30:36.252Z,5.70
2023-08-22T21:33:05.912Z,6.00
2023-08-22T21:35:34.975Z,5.90
2023-08-22T21:38:03.457Z,6.60
2023-08-22T21:40:31.851Z,6.60
2023-08-22T21:43:00.277Z,6.30
2023-08-22T21:45:29.093Z,5.70
2023-08-22T21:47:57.447Z,6.50
2023-08-22T21:50:25.730Z,6.60
2023-08-22T21:52:54.116Z,6.20
2023-08-22T21:55:22.277Z,7.00
2023-08-22T21:57:50.424Z,6.70
2023-08-22T22:00:18.793Z,6.20
2023-08-22T22:16:13.775Z,7.00
2023-08-22T22:18:42.432Z,6.60
2023-08-22T22:21:11.249Z,6.30
2023-08-22T22:23:39.805Z,6.60
2023-08-22T22:26:09.935Z,6.10
2023-08-22T22:28:40.839Z,6.60
2023-08-22T22:31:09.832Z,6.10
2023-08-22T22:33:39.400Z,6.60
2023-08-22T22:36:08.218Z,6.40
2023-08-22T22:38:36.721Z,6.70
2023-08-22T22:41:05.540Z,6.30
2023-08-22T22:43:33.797Z,7.20
2023-08-22T22:46:03.008Z,7.40
2023-08-22T22:48:31.577Z,7.40
2023-08-22T22:51:00.026Z,7.20
2023-08-22T22:53:28.348Z,7.70
2023-08-22T22:55:56.638Z,7.00
2023-08-22T22:58:25.750Z,7.60
2023-08-22T23:00:54.544Z,8.00
2023-08-22T23:03:22.793Z,7.30
2023-08-22T23:05:51.227Z,6.70
2023-08-22T23:08:19.700Z,8.20
2023-08-22T23:10:47.994Z,8.00
2023-08-22T23:13:17.008Z,8.70
2023-08-22T23:15:45.953Z,7.30
2023-08-22T23:18:14.617Z,7.10
2023-08-22T23:20:43.115Z,6.70
2023-08-22T23:23:12.734Z,7.00
2023-08-22T23:25:41.930Z,6.50
2023-08-22T23:28:10.163Z,6.90
2023-08-22T23:30:38.477Z,7.00
2023-08-22T23:33:07.459Z,6.50
2023-08-22T23:35:36.045Z,7.20
2023-08-22T23:38:04.689Z,6.30
2023-08-22T23:40:33.037Z,6.80
2023-08-22T23:43:02.034Z,6.20
2023-08-22T23:45:30.404Z,5.70
2023-08-22T23:47:59.270Z,6.50
2023-08-22T23:50:27.682Z,5.80
2023-08-22T23:52:55.987Z,6.00
2023-08-22T23:55:24.602Z,6.60
2023-08-22T23:57:53.015Z,5.80
